Portada
METAR-TAF:

METAR-TAF

Aeropuertos :

Al-Ula, Arabia Saudita

latitud: 26-29-00N, longitud: 038-07-01E, altitud: 624 m

Observación

El informe se hizo hace 6 horas y 19 minutos, a las 20:00 UTC
Viento 2 kt del este-noreste
Temperatura 32°C
Humedad 8%
Presión 1014 hPa
Visibilidad 10 km o más
sin nubes por debajo de 1500 m y sin presencia de cumulonimbus.

METAR: OEAO 272000Z 06002KT CAVOK 32/M07 Q1014

Hora: 05:19 (02:19 UTC)

Pronóstico

El informe se hizo hace 3 horas y 19 minutos, a las 23:00 UTC
Pronóstico válido del 28 a las 00 UTC al 29 a las 06 UTC
Viento 8 kt del suroeste
Visibilidad: 7000 m
Evolucionando progresivamente
del 28 a las 06 UTC al 28 a las 08 UTC
Viento 15 kt del oeste-suroeste
Temporalmente
del 28 a las 06 UTC al 28 a las 16 UTC
Visibilidad: 4000 m
Polvo extendido, Ventisca alta de polvo

TAF: OEAO 272300Z 2800/2906 23008KT 7000 NSC BECMG 2806/2808 25015KT TEMPO 2806/2816 4000 DU BLDU

Observaciones y pronósticos meteorológicos de más de 4000 aeropuertos (mensajes METAR y TAF).

Los puntos amarillos y rojos representan las estaciones disponibles.

Ponga el ratón en el punto deseado para ver el nombre de la estación.

Haga clic para ver las observaciones y los pronósticos meteorológicos.

Para cambiar el mapa : haga clic en los botones verdes con una cruz de color negro para hacer un zoom, en el botón verde con un guión para alejar o en las flechas verdes para mapas adyacentes.


METAR-TAF: